Flight Track Log - Related Links

Times and Time Zones

All times are in EDT time to prevent confusion due to time zone crossing. See the EGF4174 flight status page for this flight to view local times or setup timezone preferences in your user account.

Time Position Orientation Groundspeed Altitude Reporting Facility
EDT Latitude Longitude Course Direction KTS MPH feet Rate Location/Type
Sat 05:21:51 PM 43.1086 -76.1036 286° West 151 174 900  Level Boston Center
Sat 05:23:22 PM 43.1558 -76.0608 33° Northeast 220 253 5,100 2,538 Climbing Boston Center
Sat 05:24:00 PM 43.1875 -76.4375 324° Northwest  Level FlightAware Approximate
Sat 05:25:00 PM 43.2073 -76.5510 281° West  Level FlightAware Approximate
Sat 05:25:45 PM 43.1817 -76.2550 280° West 218 251 10,800  Level Cleveland Center
Sat 05:26:00 PM 43.2283 -76.6707 286° West  Level FlightAware Approximate
Sat 05:26:45 PM 43.1733 -76.3667 264° West 257 296 12,600  Level Cleveland Center
Sat 05:27:00 PM 43.2536 -76.7889 286° West  Level FlightAware Approximate
Sat 05:27:45 PM 43.1650 -76.4842 264° West 297 342 15,100  Level Cleveland Center
Sat 05:28:45 PM 43.1592 -76.6125 266° West 322 371 16,800 1,850 Climbing Cleveland Center
Sat 05:29:45 PM 43.1467 -76.7386 262° West 333 383 18,800 2,400 Climbing Cleveland Center
Sat 05:30:45 PM 43.1361 -76.8617 263° West 338 389 21,600 2,600 Climbing Cleveland Center
Sat 05:31:45 PM 43.1358 -76.9842 270° West 332 382 24,000 2,300 Climbing Cleveland Center
Sat 05:32:45 PM 43.1375 -77.1036 271° West 332 382 26,200 1,900 Climbing Cleveland Center
Sat 05:33:45 PM 43.1389 -77.2286 271° West 332 382 27,800 1,550 Climbing Cleveland Center
Sat 05:34:45 PM 43.1383 -77.3539 270° West 332 382 29,300 1,300 Climbing Cleveland Center
Sat 05:35:45 PM 43.1397 -77.4847 271° West 332 382 30,400 1,100 Climbing Cleveland Center
Sat 05:36:45 PM 43.1372 -77.6242 269° West 349 402 31,500 1,050 Climbing Cleveland Center
Sat 05:37:45 PM 43.1386 -77.7664 271° West 365 420 32,500 1,000 Climbing Cleveland Center
Sat 05:38:45 PM 43.1381 -77.9144 270° West 378 435 33,500 1,050 Climbing Cleveland Center
Sat 05:39:45 PM 43.1372 -78.0653 270° West 391 450 34,600 1,000 Climbing Cleveland Center
Sat 05:40:45 PM 43.1361 -78.2133 269° West 396 456 35,500 700 Climbing Cleveland Center
Sat 05:41:45 PM 43.1372 -78.3669 271° West 401 461 36,000 250 Climbing Cleveland Center
Sat 05:42:45 PM 43.1336 -78.5150 268° West 401 461 36,000  Level Cleveland Center
Sat 05:43:45 PM 43.1342 -78.6628 270° West 401 461 36,000  Level Cleveland Center
Sat 05:44:45 PM 43.1322 -78.8108 269° West 401 461 36,000  Level Cleveland Center
Sat 05:45:18 PM 43.1167 -78.8833 254° West 390 449 36,000  Level Toronto Center
Sat 05:46:18 PM 43.1167 -79.0333 270° West 390 449 36,000  Level Toronto Center
Sat 05:47:18 PM 43.1167 -79.1833 270° West 390 449 36,000  Level Toronto Center
Sat 05:48:18 PM 43.1167 -79.3333 270° West 390 449 36,000  Level Toronto Center
Sat 05:49:18 PM 43.1167 -79.4667 270° West 390 449 36,000  Level Toronto Center
Sat 05:50:18 PM 43.1167 -79.6167 270° West 380 437 36,000  Level Toronto Center
Sat 05:51:18 PM 43.1000 -79.7667 261° West 380 437 36,000  Level Toronto Center
Sat 05:52:18 PM 43.1000 -79.9000 270° West 380 437 36,000  Level Toronto Center
Sat 05:53:18 PM 43.1000 -80.0500 270° West 380 437 36,000  Level Toronto Center
Sat 05:54:18 PM 43.1000 -80.2000 270° West 380 437 36,000  Level Toronto Center
Sat 05:55:18 PM 43.1000 -80.3333 270° West 380 437 36,000  Level Toronto Center
Sat 05:56:18 PM 43.0833 -80.5000 262° West 380 437 36,000  Level Toronto Center
Sat 05:57:18 PM 43.0833 -80.6333 270° West 380 437 36,000  Level Toronto Center
Sat 05:58:18 PM 43.0833 -80.7667 270° West 380 437 36,000  Level Toronto Center
Sat 05:59:18 PM 43.0667 -80.9167 261° West 380 437 36,000  Level Toronto Center
Sat 06:00:18 PM 43.0667 -81.0667 270° West 380 437 36,000  Level Toronto Center
Sat 06:01:18 PM 43.0667 -81.2000 270° West 380 437 36,000  Level Toronto Center
Sat 06:02:18 PM 43.0500 -81.3500 261° West 380 437 36,000  Level Toronto Center
Sat 06:03:18 PM 43.0500 -81.5000 270° West 380 437 36,000  Level Toronto Center
Sat 06:04:18 PM 43.0500 -81.6333 270° West 380 437 36,000  Level Toronto Center
Sat 06:05:18 PM 43.0500 -81.8000 270° West 380 437 36,000  Level Toronto Center
Sat 06:06:17 PM 43.0333 -81.9333 260° West 380 437 36,000  Level Toronto Center
Sat 06:07:17 PM 43.0333 -82.1000 270° West 380 437 36,000  Level Toronto Center
Sat 06:08:17 PM 43.0333 -82.2333 270° West 380 437 36,000  Level Toronto Center
Sat 06:09:17 PM 43.0167 -82.3667 260° West 380 437 36,000  Level Toronto Center
Sat 06:10:17 PM 43.0167 -82.5333 270° West 380 437 36,000 -100 Level Toronto Center
Sat 06:11:17 PM 43.0000 -82.6667 260° West 380 437 35,800 -850 Descending Toronto Center
Sat 06:12:17 PM 43.0000 -82.8000 270° West 370 426 34,300 -1,393 Descending Toronto Center
Sat 06:13:09 PM 43.0033 -82.9253 272° West 386 444 33,200 -1,339 Descending Cleveland Center
Sat 06:14:09 PM 42.9939 -83.0725 265° West 386 444 31,800 -1,200 Descending Cleveland Center
Sat 06:15:09 PM 42.9803 -83.2253 263° West 399 459 30,800 -900 Descending Cleveland Center
Sat 06:16:09 PM 42.9722 -83.3867 266° West 411 473 30,000 -400 Descending Cleveland Center
Sat 06:17:09 PM 42.9597 -83.5478 264° West 423 487 30,000  Level Cleveland Center
Sat 06:18:09 PM 42.9492 -83.7092 265° West 428 493 30,000  Level Cleveland Center
Sat 06:19:09 PM 42.9364 -83.8700 264° West 428 493 30,000  Level Cleveland Center
Sat 06:20:09 PM 42.9256 -84.0342 265° West 428 493 30,000  Level Cleveland Center
Sat 06:21:09 PM 42.9119 -84.1978 264° West 433 498 30,000  Level Cleveland Center
Sat 06:22:45 PM 42.8933 -84.4644 265° West 434 499 30,000  Level Chicago Center
Sat 06:23:46 PM 42.8803 -84.6303 264° West 440 506 30,000  Level Chicago Center
Sat 06:24:48 PM 42.8628 -84.7936 262° West 438 504 30,000  Level Chicago Center
Sat 06:25:50 PM 42.8461 -84.9575 262° West 437 503 30,000  Level Chicago Center
Sat 06:26:52 PM 42.8286 -85.1194 262° West 435 501 30,000  Level Chicago Center
Sat 06:27:53 PM 42.8106 -85.2842 262° West 440 506 30,000 -726 Level Chicago Center
Sat 06:28:56 PM 42.7883 -85.4803 261° West 437 503 28,500 -1,645 Descending Chicago Center
Sat 06:29:57 PM 42.7600 -85.6447 257° West 443 510 26,600 -1,869 Descending Chicago Center
Sat 06:30:58 PM 42.7300 -85.8092 256° West 445 512 24,700 -1,756 Descending Chicago Center
Sat 06:32:00 PM 42.7011 -85.9700 256° West 436 502 23,000 -1,645 Descending Chicago Center
Sat 06:33:02 PM 42.6722 -86.1286 256° West 431 496 21,300 -1,463 Descending Chicago Center
Sat 06:34:03 PM 42.6439 -86.2850 256° West 425 489 20,000 -634 Descending Chicago Center
Sat 06:35:05 PM 42.6150 -86.4358 255° West 416 479 20,000 -242 Level Chicago Center
Sat 06:36:07 PM 42.5858 -86.5894 256° West 418 481 19,500 -1,317 Descending Chicago Center
Sat 06:37:08 PM 42.5528 -86.7689 256° West 417 480 17,300 -2,195 Descending Chicago Center
Sat 06:38:10 PM 42.5111 -86.9092 248° West 395 455 15,000 -2,098 Descending Chicago Center
Sat 06:39:11 PM 42.4736 -87.0439 249° West 382 440 13,000 -1,854 Descending Chicago Center
Sat 06:40:13 PM 42.4392 -87.1714 250° West 365 420 11,200 -1,452 Descending Chicago Center
Sat 06:41:15 PM 42.4047 -87.2933 249° West 349 402 10,000 -585 Descending Chicago Center
Sat 06:42:16 PM 42.3722 -87.4097 249° West 352 405 10,000 -49 Level Chicago Center
Sat 06:43:18 PM 42.3272 -87.5436 246° West 326 375 9,900 -537 Descending Chicago Center
Sat 06:44:19 PM 42.2678 -87.6086 219° Southwest 277 319 8,900 -1,073 Descending Chicago Center
Sat 06:45:21 PM 42.2161 -87.6767 224° Southwest 266 306 7,700 -927 Descending Chicago Center
Sat 06:46:22 PM 42.2158 -87.7756 270° West 266 306 7,000 -341 Descending Chicago Center
Sat 06:47:24 PM 42.2161 -87.8742 270° West 266 306 7,000  Level Chicago Center
Sat 06:48:26 PM 42.2169 -87.9661 271° West 251 289 7,000  Level Chicago Center
Sat 06:49:27 PM 42.2328 -88.0642 282° West 234 269 7,000 -683 Level Chicago Center
Sat 06:50:29 PM 42.2164 -88.1389 254° West 229 264 5,600 -1,024 Descending Chicago Center
Sat 06:51:30 PM 42.1600 -88.1250 170° South 211 243 4,900 -780 Descending Chicago Center
Sat 06:52:32 PM 42.1203 -88.0808 140° Southeast 188 216 4,000 -935 Descending Chicago Center
Sat 06:52:47 PM 42.1167 -88.0667 109° East 187 215 3,700 -1,040 Descending Chicago TRACON
Sat 06:53:47 PM 42.0667 -88.0167 143° Southeast 177 204 2,700 -1,000 Descending Chicago TRACON

Login

Don't have an account? Register now (free) for customized features, flight alerts, and more!